sensor_id;sensor_type;location;lat;lon;timestamp;pressure;altitude;pressure_sealevel;temperature;humidity
73862;BME280;63459;51.456;-0.916;2023-01-23T00:01:02;103065.50;;;12.55;22.08
73862;BME280;63459;51.456;-0.916;2023-01-23T00:03:24;103068.16;;;12.37;22.01
73862;BME280;63459;51.456;-0.916;2023-01-23T00:05:56;103065.02;;;12.53;22.06
73862;BME280;63459;51.456;-0.916;2023-01-23T00:08:14;103064.59;;;12.71;22.03
73862;BME280;63459;51.456;-0.916;2023-01-23T00:10:40;103062.81;;;12.22;22.04
73862;BME280;63459;51.456;-0.916;2023-01-23T00:13:05;103060.82;;;12.46;21.99
73862;BME280;63459;51.456;-0.916;2023-01-23T00:15:30;103062.74;;;12.42;22.00
73862;BME280;63459;51.456;-0.916;2023-01-23T00:17:56;103064.05;;;12.40;22.00
73862;BME280;63459;51.456;-0.916;2023-01-23T00:20:21;103065.06;;;11.72;22.02
73862;BME280;63459;51.456;-0.916;2023-01-23T00:22:47;103071.79;;;12.14;22.00
73862;BME280;63459;51.456;-0.916;2023-01-23T00:30:05;103068.68;;;11.95;21.88
73862;BME280;63459;51.456;-0.916;2023-01-23T00:32:29;103071.05;;;12.33;21.86
73862;BME280;63459;51.456;-0.916;2023-01-23T00:34:54;103075.86;;;12.50;21.86
73862;BME280;63459;51.456;-0.916;2023-01-23T00:37:20;103079.79;;;12.30;21.80
73862;BME280;63459;51.456;-0.916;2023-01-23T00:39:45;103081.47;;;12.24;21.79
73862;BME280;63459;51.456;-0.916;2023-01-23T00:44:36;103081.66;;;12.69;21.70
73862;BME280;63459;51.456;-0.916;2023-01-23T00:47:02;103081.98;;;12.20;21.71
73862;BME280;63459;51.456;-0.916;2023-01-23T00:49:28;103087.01;;;12.42;21.65
73862;BME280;63459;51.456;-0.916;2023-01-23T00:51:53;103082.30;;;12.35;21.64
73862;BME280;63459;51.456;-0.916;2023-01-23T00:54:19;103074.68;;;12.14;21.58
73862;BME280;63459;51.456;-0.916;2023-01-23T00:59:09;103069.68;;;12.37;21.52
73862;BME280;63459;51.456;-0.916;2023-01-23T01:01:34;103066.46;;;12.31;21.59
73862;BME280;63459;51.456;-0.916;2023-01-23T01:04:00;103063.60;;;12.46;21.63
73862;BME280;63459;51.456;-0.916;2023-01-23T01:06:26;103066.45;;;11.80;21.65
73862;BME280;63459;51.456;-0.916;2023-01-23T01:08:51;103067.20;;;12.04;21.63
73862;BME280;63459;51.456;-0.916;2023-01-23T01:11:16;103070.02;;;12.29;21.60
73862;BME280;63459;51.456;-0.916;2023-01-23T01:13:41;103065.55;;;12.30;21.59
73862;BME280;63459;51.456;-0.916;2023-01-23T01:16:06;103058.46;;;12.51;21.59
73862;BME280;63459;51.456;-0.916;2023-01-23T01:18:32;103052.33;;;12.09;21.54
73862;BME280;63459;51.456;-0.916;2023-01-23T01:20:57;103055.68;;;12.30;21.51
73862;BME280;63459;51.456;-0.916;2023-01-23T01:25:48;103061.06;;;12.26;21.50
73862;BME280;63459;51.456;-0.916;2023-01-23T01:28:14;103062.66;;;12.04;21.51
73862;BME280;63459;51.456;-0.916;2023-01-23T01:30:39;103059.91;;;12.10;21.45
73862;BME280;63459;51.456;-0.916;2023-01-23T01:33:04;103062.59;;;12.08;21.43
73862;BME280;63459;51.456;-0.916;2023-01-23T01:35:30;103071.67;;;12.04;21.40
73862;BME280;63459;51.456;-0.916;2023-01-23T01:37:55;103077.58;;;12.42;21.41
73862;BME280;63459;51.456;-0.916;2023-01-23T01:40:22;103077.39;;;12.17;21.40
73862;BME280;63459;51.456;-0.916;2023-01-23T01:42:48;103073.32;;;12.16;21.38
73862;BME280;63459;51.456;-0.916;2023-01-23T01:47:36;103078.36;;;12.12;21.26
73862;BME280;63459;51.456;-0.916;2023-01-23T01:50:03;103080.84;;;12.07;21.23
73862;BME280;63459;51.456;-0.916;2023-01-23T01:52:27;103085.74;;;12.03;21.20
73862;BME280;63459;51.456;-0.916;2023-01-23T01:54:56;103092.47;;;12.01;21.14
73862;BME280;63459;51.456;-0.916;2023-01-23T01:57:20;103097.27;;;12.02;21.11
73862;BME280;63459;51.456;-0.916;2023-01-23T01:59:45;103101.84;;;12.21;21.08
73862;BME280;63459;51.456;-0.916;2023-01-23T02:02:10;103100.94;;;11.97;21.08
73862;BME280;63459;51.456;-0.916;2023-01-23T02:04:35;103097.36;;;11.74;21.12
73862;BME280;63459;51.456;-0.916;2023-01-23T02:07:03;103100.40;;;11.75;21.10
73862;BME280;63459;51.456;-0.916;2023-01-23T02:11:50;103104.29;;;11.98;21.07
73862;BME280;63459;51.456;-0.916;2023-01-23T02:16:41;103102.10;;;12.24;21.09
73862;BME280;63459;51.456;-0.916;2023-01-23T02:19:17;103101.94;;;11.79;21.12
73862;BME280;63459;51.456;-0.916;2023-01-23T02:21:33;103105.62;;;12.04;21.11
73862;BME280;63459;51.456;-0.916;2023-01-23T02:24:09;103107.76;;;12.05;21.09
73862;BME280;63459;51.456;-0.916;2023-01-23T02:26:27;103107.39;;;12.03;21.12
73862;BME280;63459;51.456;-0.916;2023-01-23T02:28:49;103112.16;;;12.07;21.08
73862;BME280;63459;51.456;-0.916;2023-01-23T02:31:14;103114.34;;;11.93;21.02
73862;BME280;63459;51.456;-0.916;2023-01-23T02:33:46;103113.81;;;11.76;20.98
73862;BME280;63459;51.456;-0.916;2023-01-23T02:36:05;103114.34;;;12.08;20.95
73862;BME280;63459;51.456;-0.916;2023-01-23T02:38:33;103112.67;;;12.47;20.97
73862;BME280;63459;51.456;-0.916;2023-01-23T02:40:56;103107.46;;;12.27;20.97
73862;BME280;63459;51.456;-0.916;2023-01-23T02:43:24;103102.58;;;11.81;20.95
73862;BME280;63459;51.456;-0.916;2023-01-23T02:48:11;103103.45;;;11.98;20.95
73862;BME280;63459;51.456;-0.916;2023-01-23T02:50:37;103110.33;;;11.96;20.95
73862;BME280;63459;51.456;-0.916;2023-01-23T02:53:04;103115.77;;;12.16;20.93
73862;BME280;63459;51.456;-0.916;2023-01-23T02:55:28;103113.41;;;12.15;20.91
73862;BME280;63459;51.456;-0.916;2023-01-23T02:57:53;103109.18;;;12.11;20.89
73862;BME280;63459;51.456;-0.916;2023-01-23T03:00:19;103109.62;;;12.09;20.89
73862;BME280;63459;51.456;-0.916;2023-01-23T03:02:45;103110.06;;;12.07;20.88
73862;BME280;63459;51.456;-0.916;2023-01-23T03:05:10;103115.14;;;12.04;20.87
73862;BME280;63459;51.456;-0.916;2023-01-23T03:07:35;103112.25;;;11.98;20.86
73862;BME280;63459;51.456;-0.916;2023-01-23T03:14:51;103118.02;;;12.12;20.96
73862;BME280;63459;51.456;-0.916;2023-01-23T03:17:16;103116.65;;;11.87;20.97
73862;BME280;63459;51.456;-0.916;2023-01-23T03:19:41;103117.63;;;11.85;20.96
73862;BME280;63459;51.456;-0.916;2023-01-23T03:22:06;103114.51;;;11.43;20.90
73862;BME280;63459;51.456;-0.916;2023-01-23T03:24:33;103117.59;;;11.63;20.86
73862;BME280;63459;51.456;-0.916;2023-01-23T03:36:39;103123.72;;;11.42;20.98
73862;BME280;63459;51.456;-0.916;2023-01-23T03:39:05;103118.21;;;11.82;21.01
73862;BME280;63459;51.456;-0.916;2023-01-23T03:41:30;103120.16;;;11.59;21.03
73862;BME280;63459;51.456;-0.916;2023-01-23T03:43:56;103128.11;;;11.38;21.08
73862;BME280;63459;51.456;-0.916;2023-01-23T03:46:21;103130.08;;;11.81;21.15
73862;BME280;63459;51.456;-0.916;2023-01-23T03:48:46;103132.88;;;12.03;21.17
73862;BME280;63459;51.456;-0.916;2023-01-23T03:51:12;103128.52;;;11.43;21.14
73862;BME280;63459;51.456;-0.916;2023-01-23T03:53:37;103125.24;;;12.14;21.08
73862;BME280;63459;51.456;-0.916;2023-01-23T03:56:03;103112.78;;;11.88;21.08
73862;BME280;63459;51.456;-0.916;2023-01-23T03:58:28;103114.76;;;11.91;21.06
73862;BME280;63459;51.456;-0.916;2023-01-23T04:00:53;103113.70;;;11.45;21.10
73862;BME280;63459;51.456;-0.916;2023-01-23T04:03:19;103114.60;;;11.85;21.10
73862;BME280;63459;51.456;-0.916;2023-01-23T04:05:44;103116.14;;;11.41;21.10
73862;BME280;63459;51.456;-0.916;2023-01-23T04:08:10;103117.84;;;11.82;21.14
73862;BME280;63459;51.456;-0.916;2023-01-23T04:10:35;103112.65;;;11.22;21.10
73862;BME280;63459;51.456;-0.916;2023-01-23T04:15:26;103119.10;;;11.87;21.04
73862;BME280;63459;51.456;-0.916;2023-01-23T04:17:51;103122.36;;;11.62;21.08
73862;BME280;63459;51.456;-0.916;2023-01-23T04:20:17;103117.96;;;11.81;21.12
73862;BME280;63459;51.456;-0.916;2023-01-23T04:22:43;103117.12;;;11.61;21.15
73862;BME280;63459;51.456;-0.916;2023-01-23T04:25:09;103117.10;;;11.65;21.12
73862;BME280;63459;51.456;-0.916;2023-01-23T04:27:34;103116.62;;;11.67;21.08
73862;BME280;63459;51.456;-0.916;2023-01-23T04:29:59;103113.24;;;11.62;21.12
73862;BME280;63459;51.456;-0.916;2023-01-23T04:32:24;103117.39;;;11.76;21.13
73862;BME280;63459;51.456;-0.916;2023-01-23T04:34:49;103119.86;;;11.97;21.11
73862;BME280;63459;51.456;-0.916;2023-01-23T04:37:16;103117.61;;;11.49;21.11
73862;BME280;63459;51.456;-0.916;2023-01-23T04:39:41;103122.33;;;11.67;21.09
73862;BME280;63459;51.456;-0.916;2023-01-23T04:44:31;103126.48;;;11.68;21.02
73862;BME280;63459;51.456;-0.916;2023-01-23T04:46:56;103125.82;;;11.21;21.02
73862;BME280;63459;51.456;-0.916;2023-01-23T04:51:47;103131.58;;;11.83;20.97
73862;BME280;63459;51.456;-0.916;2023-01-23T04:54:12;103133.37;;;11.58;20.98
73862;BME280;63459;51.456;-0.916;2023-01-23T04:56:37;103128.38;;;11.81;21.02
73862;BME280;63459;51.456;-0.916;2023-01-23T04:59:03;103120.71;;;11.17;21.03
73862;BME280;63459;51.456;-0.916;2023-01-23T05:01:28;103122.51;;;11.84;20.97
73862;BME280;63459;51.456;-0.916;2023-01-23T05:03:53;103122.36;;;11.75;21.02
73862;BME280;63459;51.456;-0.916;2023-01-23T05:06:19;103118.44;;;11.74;21.04
73862;BME280;63459;51.456;-0.916;2023-01-23T05:08:44;103119.34;;;11.55;21.03
73862;BME280;63459;51.456;-0.916;2023-01-23T05:13:34;103122.33;;;11.61;20.99
73862;BME280;63459;51.456;-0.916;2023-01-23T05:16:00;103125.97;;;11.57;21.01
73862;BME280;63459;51.456;-0.916;2023-01-23T05:18:26;103129.42;;;11.77;21.01
73862;BME280;63459;51.456;-0.916;2023-01-23T05:20:51;103126.15;;;11.32;21.01
73862;BME280;63459;51.456;-0.916;2023-01-23T05:23:16;103131.43;;;11.79;21.02
73862;BME280;63459;51.456;-0.916;2023-01-23T05:25:44;103127.27;;;11.37;21.01
73862;BME280;63459;51.456;-0.916;2023-01-23T05:28:09;103127.95;;;11.79;21.01
73862;BME280;63459;51.456;-0.916;2023-01-23T05:30:33;103134.04;;;11.59;20.97
73862;BME280;63459;51.456;-0.916;2023-01-23T05:32:58;103139.76;;;11.38;20.96
73862;BME280;63459;51.456;-0.916;2023-01-23T05:37:49;103143.53;;;11.85;20.91
73862;BME280;63459;51.456;-0.916;2023-01-23T05:42:40;103152.56;;;11.86;20.86
73862;BME280;63459;51.456;-0.916;2023-01-23T05:45:06;103152.00;;;11.37;20.87
73862;BME280;63459;51.456;-0.916;2023-01-23T05:47:32;103150.58;;;11.59;20.85
73862;BME280;63459;51.456;-0.916;2023-01-23T05:49:57;103150.37;;;11.79;20.90
73862;BME280;63459;51.456;-0.916;2023-01-23T05:52:23;103145.18;;;11.30;20.94
73862;BME280;63459;51.456;-0.916;2023-01-23T05:54:48;103138.02;;;11.31;20.99
73862;BME280;63459;51.456;-0.916;2023-01-23T05:57:13;103132.54;;;11.54;20.99
73862;BME280;63459;51.456;-0.916;2023-01-23T06:02:04;103131.66;;;11.76;21.04
73862;BME280;63459;51.456;-0.916;2023-01-23T06:04:29;103134.08;;;11.75;21.08
73862;BME280;63459;51.456;-0.916;2023-01-23T06:06:55;103132.52;;;11.12;21.06
73862;BME280;63459;51.456;-0.916;2023-01-23T06:09:20;103138.51;;;11.31;21.09
73862;BME280;63459;51.456;-0.916;2023-01-23T06:11:45;103130.90;;;11.49;21.14
73862;BME280;63459;51.456;-0.916;2023-01-23T06:14:11;103134.93;;;11.50;21.15
73862;BME280;63459;51.456;-0.916;2023-01-23T06:16:37;103134.25;;;11.31;21.12
73862;BME280;63459;51.456;-0.916;2023-01-23T06:19:03;103138.21;;;11.73;21.04
73862;BME280;63459;51.456;-0.916;2023-01-23T06:21:28;103140.37;;;11.47;21.09
73862;BME280;63459;51.456;-0.916;2023-01-23T06:23:53;103145.90;;;11.63;21.14
73862;BME280;63459;51.456;-0.916;2023-01-23T06:26:20;103152.72;;;11.58;20.91
73862;BME280;63459;51.456;-0.916;2023-01-23T06:28:44;103154.97;;;12.01;20.88
73862;BME280;63459;51.456;-0.916;2023-01-23T06:31:10;103156.01;;;12.08;21.06
73862;BME280;63459;51.456;-0.916;2023-01-23T06:33:36;103157.80;;;11.39;21.11
73862;BME280;63459;51.456;-0.916;2023-01-23T06:36:04;103163.34;;;11.33;21.15
73862;BME280;63459;51.456;-0.916;2023-01-23T06:38:27;103165.48;;;11.38;21.12
73862;BME280;63459;51.456;-0.916;2023-01-23T06:40:53;103167.94;;;11.08;21.10
73862;BME280;63459;51.456;-0.916;2023-01-23T06:43:18;103171.69;;;11.66;21.16
73862;BME280;63459;51.456;-0.916;2023-01-23T06:45:44;103171.03;;;11.41;21.20
73862;BME280;63459;51.456;-0.916;2023-01-23T06:48:09;103175.06;;;11.42;21.19
73862;BME280;63459;51.456;-0.916;2023-01-23T06:50:36;103170.89;;;11.38;21.21
73862;BME280;63459;51.456;-0.916;2023-01-23T06:53:00;103174.69;;;11.60;21.21
73862;BME280;63459;51.456;-0.916;2023-01-23T06:55:25;103178.61;;;11.24;21.18
73862;BME280;63459;51.456;-0.916;2023-01-23T06:57:51;103176.90;;;11.43;21.15
73862;BME280;63459;51.456;-0.916;2023-01-23T07:00:17;103174.21;;;11.44;21.19
73862;BME280;63459;51.456;-0.916;2023-01-23T07:05:08;103175.65;;;11.51;21.05
73862;BME280;63459;51.456;-0.916;2023-01-23T07:07:33;103174.56;;;11.04;21.12
73862;BME280;63459;51.456;-0.916;2023-01-23T07:09:59;103175.84;;;11.54;21.11
73862;BME280;63459;51.456;-0.916;2023-01-23T07:12:24;103175.51;;;12.01;21.08
73862;BME280;63459;51.456;-0.916;2023-01-23T07:14:49;103172.72;;;11.33;21.01
73862;BME280;63459;51.456;-0.916;2023-01-23T07:17:14;103179.80;;;11.50;21.09
73862;BME280;63459;51.456;-0.916;2023-01-23T07:19:40;103173.91;;;11.75;21.13
73862;BME280;63459;51.456;-0.916;2023-01-23T07:24:30;103176.48;;;11.45;21.03
73862;BME280;63459;51.456;-0.916;2023-01-23T07:26:56;103173.47;;;11.38;21.13
73862;BME280;63459;51.456;-0.916;2023-01-23T07:29:21;103179.04;;;11.66;21.11
73862;BME280;63459;51.456;-0.916;2023-01-23T07:31:47;103175.48;;;11.44;21.13
73862;BME280;63459;51.456;-0.916;2023-01-23T07:34:12;103170.76;;;11.63;21.13
73862;BME280;63459;51.456;-0.916;2023-01-23T07:36:38;103164.54;;;12.06;21.18
73862;BME280;63459;51.456;-0.916;2023-01-23T07:41:30;103161.25;;;11.44;21.05
73862;BME280;63459;51.456;-0.916;2023-01-23T07:43:54;103166.24;;;11.88;21.08
73862;BME280;63459;51.456;-0.916;2023-01-23T07:46:20;103169.48;;;11.41;21.13
73862;BME280;63459;51.456;-0.916;2023-01-23T07:48:46;103175.11;;;11.00;21.18
73862;BME280;63459;51.456;-0.916;2023-01-23T07:51:11;103174.40;;;11.95;21.06
73862;BME280;63459;51.456;-0.916;2023-01-23T07:58:27;103190.42;;;12.02;21.15
73862;BME280;63459;51.456;-0.916;2023-01-23T08:00:53;103190.68;;;11.59;21.15
73862;BME280;63459;51.456;-0.916;2023-01-23T08:03:18;103192.39;;;11.86;21.14
73862;BME280;63459;51.456;-0.916;2023-01-23T08:05:47;103195.99;;;11.68;21.11
73862;BME280;63459;51.456;-0.916;2023-01-23T08:08:09;103193.44;;;11.87;21.16
73862;BME280;63459;51.456;-0.916;2023-01-23T08:13:00;103198.27;;;11.56;21.07
73862;BME280;63459;51.456;-0.916;2023-01-23T08:17:52;103208.62;;;12.04;21.13
73862;BME280;63459;51.456;-0.916;2023-01-23T08:22:42;103210.13;;;11.69;21.12
73862;BME280;63459;51.456;-0.916;2023-01-23T08:25:09;103213.50;;;11.92;21.15
73862;BME280;63459;51.456;-0.916;2023-01-23T08:27:33;103214.36;;;11.93;21.19
73862;BME280;63459;51.456;-0.916;2023-01-23T08:29:59;103219.88;;;12.37;21.22
73862;BME280;63459;51.456;-0.916;2023-01-23T08:32:25;103221.76;;;11.76;21.21
73862;BME280;63459;51.456;-0.916;2023-01-23T08:37:15;103228.30;;;12.30;21.13
73862;BME280;63459;51.456;-0.916;2023-01-23T08:39:41;103237.13;;;12.08;21.16
73862;BME280;63459;51.456;-0.916;2023-01-23T08:42:06;103237.89;;;12.06;21.20
73862;BME280;63459;51.456;-0.916;2023-01-23T08:44:31;103236.80;;;12.55;21.20
73862;BME280;63459;51.456;-0.916;2023-01-23T08:49:22;103238.82;;;12.25;21.11
73862;BME280;63459;51.456;-0.916;2023-01-23T08:54:13;103241.29;;;12.30;21.16
73862;BME280;63459;51.456;-0.916;2023-01-23T08:56:39;103242.79;;;12.36;21.18
73862;BME280;63459;51.456;-0.916;2023-01-23T08:59:05;103239.66;;;12.24;21.14
73862;BME280;63459;51.456;-0.916;2023-01-23T09:01:30;103238.24;;;12.55;21.15
73862;BME280;63459;51.456;-0.916;2023-01-23T09:03:56;103238.68;;;12.39;21.14
73862;BME280;63459;51.456;-0.916;2023-01-23T09:08:46;103234.33;;;12.76;21.09
73862;BME280;63459;51.456;-0.916;2023-01-23T09:11:12;103233.93;;;11.97;21.06
73862;BME280;63459;51.456;-0.916;2023-01-23T09:13:38;103235.82;;;12.70;20.99
73862;BME280;63459;51.456;-0.916;2023-01-23T09:16:03;103235.43;;;12.49;20.98
73862;BME280;63459;51.456;-0.916;2023-01-23T09:18:28;103243.18;;;12.73;21.02
73862;BME280;63459;51.456;-0.916;2023-01-23T09:20:54;103245.98;;;12.83;21.05
73862;BME280;63459;51.456;-0.916;2023-01-23T09:23:20;103246.59;;;12.33;20.99
73862;BME280;63459;51.456;-0.916;2023-01-23T09:25:45;103248.28;;;12.78;21.04
73862;BME280;63459;51.456;-0.916;2023-01-23T09:28:10;103255.05;;;12.86;21.01
73862;BME280;63459;51.456;-0.916;2023-01-23T09:30:36;103259.26;;;13.12;20.98
73862;BME280;63459;51.456;-0.916;2023-01-23T09:33:01;103260.00;;;12.91;21.01
73862;BME280;63459;51.456;-0.916;2023-01-23T09:35:26;103262.41;;;12.98;21.01
73862;BME280;63459;51.456;-0.916;2023-01-23T09:37:52;103263.26;;;13.27;21.02
73862;BME280;63459;51.456;-0.916;2023-01-23T09:40:20;103256.54;;;12.94;21.00
73862;BME280;63459;51.456;-0.916;2023-01-23T09:42:43;103255.78;;;13.03;20.97
73862;BME280;63459;51.456;-0.916;2023-01-23T09:45:11;103261.89;;;13.34;20.93
73862;BME280;63459;51.456;-0.916;2023-01-23T09:47:35;103264.50;;;13.47;20.95
73862;BME280;63459;51.456;-0.916;2023-01-23T09:50:00;103270.10;;;13.61;20.92
73862;BME280;63459;51.456;-0.916;2023-01-23T09:52:28;103273.63;;;13.43;20.92
73862;BME280;63459;51.456;-0.916;2023-01-23T09:54:53;103278.55;;;13.47;20.88
73862;BME280;63459;51.456;-0.916;2023-01-23T09:57:18;103283.50;;;13.69;20.87
73862;BME280;63459;51.456;-0.916;2023-01-23T09:59:45;103282.37;;;13.67;20.88
73862;BME280;63459;51.456;-0.916;2023-01-23T10:02:14;103281.01;;;13.67;20.92
73862;BME280;63459;51.456;-0.916;2023-01-23T10:07:09;103282.66;;;12.96;20.83
73862;BME280;63459;51.456;-0.916;2023-01-23T10:09:33;103285.58;;;13.88;20.86
73862;BME280;63459;51.456;-0.916;2023-01-23T10:11:55;103285.90;;;13.92;20.87
73862;BME280;63459;51.456;-0.916;2023-01-23T10:14:35;103283.57;;;13.64;20.93
73862;BME280;63459;51.456;-0.916;2023-01-23T10:16:49;103281.20;;;13.38;20.93
73862;BME280;63459;51.456;-0.916;2023-01-23T10:19:12;103280.36;;;13.54;20.99
73862;BME280;63459;51.456;-0.916;2023-01-23T10:21:33;103278.25;;;13.75;21.08
73862;BME280;63459;51.456;-0.916;2023-01-23T10:26:22;103272.55;;;13.51;21.14
73862;BME280;63459;51.456;-0.916;2023-01-23T10:28:46;103268.19;;;13.23;21.16
73862;BME280;63459;51.456;-0.916;2023-01-23T10:31:20;103271.07;;;13.20;21.21
73862;BME280;63459;51.456;-0.916;2023-01-23T10:33:41;103271.22;;;13.20;21.24
73862;BME280;63459;51.456;-0.916;2023-01-23T10:36:05;103275.04;;;13.25;21.21
73862;BME280;63459;51.456;-0.916;2023-01-23T10:38:32;103277.52;;;13.51;21.21
73862;BME280;63459;51.456;-0.916;2023-01-23T10:40:53;103274.13;;;13.58;21.20
73862;BME280;63459;51.456;-0.916;2023-01-23T10:43:20;103272.67;;;13.60;21.22
73862;BME280;63459;51.456;-0.916;2023-01-23T10:50:36;103272.32;;;13.76;21.27
73862;BME280;63459;51.456;-0.916;2023-01-23T10:55:29;103272.67;;;13.55;21.32
73862;BME280;63459;51.456;-0.916;2023-01-23T10:57:56;103268.99;;;13.61;21.27
73862;BME280;63459;51.456;-0.916;2023-01-23T11:00:20;103269.27;;;13.44;21.25
73862;BME280;63459;51.456;-0.916;2023-01-23T11:02:43;103264.21;;;13.63;21.31
73862;BME280;63459;51.456;-0.916;2023-01-23T11:07:36;103259.22;;;13.57;21.41
73862;BME280;63459;51.456;-0.916;2023-01-23T11:10:00;103267.35;;;13.80;21.42
73862;BME280;63459;51.456;-0.916;2023-01-23T11:14:51;103272.69;;;13.80;21.47
73862;BME280;63459;51.456;-0.916;2023-01-23T11:17:19;103268.62;;;13.58;21.51
73862;BME280;63459;51.456;-0.916;2023-01-23T11:19:41;103268.27;;;13.85;21.50
73862;BME280;63459;51.456;-0.916;2023-01-23T11:24:33;103272.08;;;13.33;21.61
73862;BME280;63459;51.456;-0.916;2023-01-23T11:29:23;103262.96;;;13.79;21.64
73862;BME280;63459;51.456;-0.916;2023-01-23T11:34:13;103259.77;;;13.50;21.76
73862;BME280;63459;51.456;-0.916;2023-01-23T11:36:42;103254.24;;;13.48;21.83
73862;BME280;63459;51.456;-0.916;2023-01-23T11:39:10;103245.93;;;13.70;21.84
73862;BME280;63459;51.456;-0.916;2023-01-23T11:41:32;103249.05;;;13.50;21.87
73862;BME280;63459;51.456;-0.916;2023-01-23T11:43:55;103252.91;;;13.72;21.90
73862;BME280;63459;51.456;-0.916;2023-01-23T11:46:32;103252.43;;;13.53;21.93
73862;BME280;63459;51.456;-0.916;2023-01-23T11:48:53;103246.43;;;13.60;21.92
73862;BME280;63459;51.456;-0.916;2023-01-23T11:51:15;103243.05;;;13.44;21.93
73862;BME280;63459;51.456;-0.916;2023-01-23T11:53:43;103238.68;;;13.86;22.01
73862;BME280;63459;51.456;-0.916;2023-01-23T11:56:11;103235.51;;;13.41;22.11
73862;BME280;63459;51.456;-0.916;2023-01-23T11:58:42;103237.57;;;13.47;22.13
73862;BME280;63459;51.456;-0.916;2023-01-23T12:00:59;103237.81;;;13.76;22.12
73862;BME280;63459;51.456;-0.916;2023-01-23T12:03:33;103236.95;;;13.80;22.15
73862;BME280;63459;51.456;-0.916;2023-01-23T12:05:50;103230.90;;;13.59;22.21
73862;BME280;63459;51.456;-0.916;2023-01-23T12:08:17;103227.71;;;14.03;22.26
73862;BME280;63459;51.456;-0.916;2023-01-23T12:10:42;103222.65;;;13.90;22.26
73862;BME280;63459;51.456;-0.916;2023-01-23T12:13:11;103217.90;;;13.52;22.24
73862;BME280;63459;51.456;-0.916;2023-01-23T12:15:30;103221.84;;;13.54;22.25
73862;BME280;63459;51.456;-0.916;2023-01-23T12:17:55;103226.48;;;14.02;22.27
73862;BME280;63459;51.456;-0.916;2023-01-23T12:20:22;103230.41;;;14.08;22.25
73862;BME280;63459;51.456;-0.916;2023-01-23T12:22:47;103233.21;;;13.90;22.27
73862;BME280;63459;51.456;-0.916;2023-01-23T12:27:38;103226.54;;;14.14;22.36
73862;BME280;63459;51.456;-0.916;2023-01-23T12:30:10;103223.94;;;13.98;22.35
73862;BME280;63459;51.456;-0.916;2023-01-23T12:32:34;103226.20;;;14.62;22.40
73862;BME280;63459;51.456;-0.916;2023-01-23T12:34:56;103220.97;;;14.22;22.41
73862;BME280;63459;51.456;-0.916;2023-01-23T12:37:25;103219.92;;;14.29;22.39
73862;BME280;63459;51.456;-0.916;2023-01-23T12:39:54;103224.42;;;14.29;22.39
73862;BME280;63459;51.456;-0.916;2023-01-23T12:42:09;103221.02;;;14.74;22.41
73862;BME280;63459;51.456;-0.916;2023-01-23T12:44:34;103221.54;;;14.12;22.43
73862;BME280;63459;51.456;-0.916;2023-01-23T12:46:57;103220.71;;;14.17;22.46
73862;BME280;63459;51.456;-0.916;2023-01-23T12:49:26;103216.27;;;14.22;22.55
73862;BME280;63459;51.456;-0.916;2023-01-23T12:51:49;103205.40;;;14.70;22.60
73862;BME280;63459;51.456;-0.916;2023-01-23T12:54:15;103194.66;;;14.13;22.61
73862;BME280;63459;51.456;-0.916;2023-01-23T12:56:38;103186.59;;;14.85;22.63
73862;BME280;63459;51.456;-0.916;2023-01-23T12:59:08;103179.57;;;14.70;22.64
73862;BME280;63459;51.456;-0.916;2023-01-23T13:01:43;103175.60;;;13.93;22.70
73862;BME280;63459;51.456;-0.916;2023-01-23T13:04:01;103179.99;;;14.86;22.78
73862;BME280;63459;51.456;-0.916;2023-01-23T13:06:27;103179.68;;;14.50;22.83
73862;BME280;63459;51.456;-0.916;2023-01-23T13:08:49;103183.08;;;14.79;22.85
73862;BME280;63459;51.456;-0.916;2023-01-23T13:11:15;103183.12;;;14.61;22.89
73862;BME280;63459;51.456;-0.916;2023-01-23T13:13:36;103186.17;;;14.08;22.85
73862;BME280;63459;51.456;-0.916;2023-01-23T13:16:08;103183.58;;;15.04;22.93
73862;BME280;63459;51.456;-0.916;2023-01-23T13:18:26;103180.85;;;14.68;22.90
73862;BME280;63459;51.456;-0.916;2023-01-23T13:20:55;103187.18;;;15.16;22.90
73862;BME280;63459;51.456;-0.916;2023-01-23T13:25:42;103184.45;;;15.09;22.78
73862;BME280;63459;51.456;-0.916;2023-01-23T13:37:50;103178.00;;;14.76;22.78
73862;BME280;63459;51.456;-0.916;2023-01-23T13:40:19;103179.86;;;14.81;22.85
73862;BME280;63459;51.456;-0.916;2023-01-23T13:42:41;103175.15;;;15.26;22.88
73862;BME280;63459;51.456;-0.916;2023-01-23T13:47:35;103189.26;;;15.34;22.86
73862;BME280;63459;51.456;-0.916;2023-01-23T13:50:04;103188.45;;;14.96;22.84
73862;BME280;63459;51.456;-0.916;2023-01-23T13:52:25;103186.68;;;15.67;22.79
73862;BME280;63459;51.456;-0.916;2023-01-23T13:54:49;103187.75;;;15.03;22.78
73862;BME280;63459;51.456;-0.916;2023-01-23T13:57:16;103180.89;;;14.97;22.83
73862;BME280;63459;51.456;-0.916;2023-01-23T13:59:41;103179.08;;;14.99;22.80
73862;BME280;63459;51.456;-0.916;2023-01-23T14:02:15;103178.89;;;15.84;22.80
73862;BME280;63459;51.456;-0.916;2023-01-23T14:04:32;103177.80;;;15.25;22.83
73862;BME280;63459;51.456;-0.916;2023-01-23T14:06:57;103180.93;;;15.67;22.85
73862;BME280;63459;51.456;-0.916;2023-01-23T14:09:24;103189.94;;;15.22;22.86
73862;BME280;63459;51.456;-0.916;2023-01-23T14:11:56;103184.61;;;14.97;22.89
73862;BME280;63459;51.456;-0.916;2023-01-23T14:14:13;103182.50;;;15.47;22.83
73862;BME280;63459;51.456;-0.916;2023-01-23T14:16:40;103180.65;;;15.45;22.89
73862;BME280;63459;51.456;-0.916;2023-01-23T14:19:04;103177.51;;;15.69;22.91
73862;BME280;63459;51.456;-0.916;2023-01-23T14:21:30;103176.33;;;14.83;22.95
73862;BME280;63459;51.456;-0.916;2023-01-23T14:23:56;103169.59;;;15.33;22.89
73862;BME280;63459;51.456;-0.916;2023-01-23T14:26:24;103167.41;;;15.34;22.89
73862;BME280;63459;51.456;-0.916;2023-01-23T14:28:51;103168.50;;;15.16;22.88
73862;BME280;63459;51.456;-0.916;2023-01-23T14:31:20;103164.60;;;15.23;22.80
73862;BME280;63459;51.456;-0.916;2023-01-23T14:33:41;103167.14;;;15.24;22.78